sensor_id;sensor_type;location;lat;lon;timestamp;temperature;humidity
4584;DHT22;2304;47.606;12.186;2024-02-15T00:02:45;7.40;63.80
4584;DHT22;2304;47.606;12.186;2024-02-15T00:07:48;7.50;63.70
4584;DHT22;2304;47.606;12.186;2024-02-15T00:12:50;7.50;63.50
4584;DHT22;2304;47.606;12.186;2024-02-15T00:17:51;7.40;63.50
4584;DHT22;2304;47.606;12.186;2024-02-15T00:22:55;7.50;63.80
4584;DHT22;2304;47.606;12.186;2024-02-15T00:27:57;7.50;64.00
4584;DHT22;2304;47.606;12.186;2024-02-15T00:33:00;7.50;63.80
4584;DHT22;2304;47.606;12.186;2024-02-15T00:38:04;7.40;63.90
4584;DHT22;2304;47.606;12.186;2024-02-15T00:43:07;7.40;64.10
4584;DHT22;2304;47.606;12.186;2024-02-15T00:48:09;7.40;63.50
4584;DHT22;2304;47.606;12.186;2024-02-15T00:53:12;7.40;63.20
4584;DHT22;2304;47.606;12.186;2024-02-15T00:58:14;7.30;62.90
4584;DHT22;2304;47.606;12.186;2024-02-15T01:03:16;7.40;63.00
4584;DHT22;2304;47.606;12.186;2024-02-15T01:08:19;7.40;62.70
4584;DHT22;2304;47.606;12.186;2024-02-15T01:13:21;7.50;62.60
4584;DHT22;2304;47.606;12.186;2024-02-15T01:18:24;7.50;62.10
4584;DHT22;2304;47.606;12.186;2024-02-15T01:23:28;7.50;62.40
4584;DHT22;2304;47.606;12.186;2024-02-15T01:28:30;7.40;63.10
4584;DHT22;2304;47.606;12.186;2024-02-15T01:33:32;7.40;64.20
4584;DHT22;2304;47.606;12.186;2024-02-15T01:38:36;7.40;64.40
4584;DHT22;2304;47.606;12.186;2024-02-15T01:43:37;7.60;64.30
4584;DHT22;2304;47.606;12.186;2024-02-15T01:48:41;7.50;63.90
4584;DHT22;2304;47.606;12.186;2024-02-15T01:53:44;7.50;63.90
4584;DHT22;2304;47.606;12.186;2024-02-15T01:58:47;7.40;63.50
4584;DHT22;2304;47.606;12.186;2024-02-15T02:03:49;7.40;64.10
4584;DHT22;2304;47.606;12.186;2024-02-15T02:08:52;7.30;63.70
4584;DHT22;2304;47.606;12.186;2024-02-15T02:13:56;7.30;63.90
4584;DHT22;2304;47.606;12.186;2024-02-15T02:18:59;7.40;64.30
4584;DHT22;2304;47.606;12.186;2024-02-15T02:24:03;7.40;64.20
4584;DHT22;2304;47.606;12.186;2024-02-15T02:35:07;7.40;64.40
4584;DHT22;2304;47.606;12.186;2024-02-15T02:40:12;7.50;64.00
4584;DHT22;2304;47.606;12.186;2024-02-15T02:45:14;7.50;63.70
4584;DHT22;2304;47.606;12.186;2024-02-15T02:50:17;7.40;64.10
4584;DHT22;2304;47.606;12.186;2024-02-15T02:55:19;7.40;64.80
4584;DHT22;2304;47.606;12.186;2024-02-15T03:00:21;7.40;63.50
4584;DHT22;2304;47.606;12.186;2024-02-15T03:05:24;7.40;62.80
4584;DHT22;2304;47.606;12.186;2024-02-15T03:10:26;7.40;63.60
4584;DHT22;2304;47.606;12.186;2024-02-15T03:15:28;7.40;63.50
4584;DHT22;2304;47.606;12.186;2024-02-15T03:20:31;7.30;65.30
4584;DHT22;2304;47.606;12.186;2024-02-15T03:25:34;7.30;65.60
4584;DHT22;2304;47.606;12.186;2024-02-15T03:30:36;7.30;65.80
4584;DHT22;2304;47.606;12.186;2024-02-15T03:35:39;7.30;65.70
4584;DHT22;2304;47.606;12.186;2024-02-15T03:40:42;7.20;65.30
4584;DHT22;2304;47.606;12.186;2024-02-15T03:45:44;7.20;65.50
4584;DHT22;2304;47.606;12.186;2024-02-15T03:50:47;7.20;66.00
4584;DHT22;2304;47.606;12.186;2024-02-15T03:55:49;7.20;65.80
4584;DHT22;2304;47.606;12.186;2024-02-15T04:00:54;7.30;65.60
4584;DHT22;2304;47.606;12.186;2024-02-15T04:05:58;7.30;64.80
4584;DHT22;2304;47.606;12.186;2024-02-15T04:11:00;7.30;64.60
4584;DHT22;2304;47.606;12.186;2024-02-15T04:16:03;7.30;64.50
4584;DHT22;2304;47.606;12.186;2024-02-15T04:21:06;7.30;64.40
4584;DHT22;2304;47.606;12.186;2024-02-15T04:26:09;7.30;64.40
4584;DHT22;2304;47.606;12.186;2024-02-15T04:31:14;7.30;64.50
4584;DHT22;2304;47.606;12.186;2024-02-15T04:36:17;7.30;64.20
4584;DHT22;2304;47.606;12.186;2024-02-15T04:41:23;7.30;64.40
4584;DHT22;2304;47.606;12.186;2024-02-15T04:46:25;7.30;64.90
4584;DHT22;2304;47.606;12.186;2024-02-15T04:51:28;7.30;65.10
4584;DHT22;2304;47.606;12.186;2024-02-15T04:56:30;7.30;64.60
4584;DHT22;2304;47.606;12.186;2024-02-15T05:01:33;7.30;64.70
4584;DHT22;2304;47.606;12.186;2024-02-15T05:06:36;7.30;64.70
4584;DHT22;2304;47.606;12.186;2024-02-15T05:11:38;7.30;64.70
4584;DHT22;2304;47.606;12.186;2024-02-15T05:16:42;7.30;64.70
4584;DHT22;2304;47.606;12.186;2024-02-15T05:21:46;7.20;65.00
4584;DHT22;2304;47.606;12.186;2024-02-15T05:26:48;7.20;65.00
4584;DHT22;2304;47.606;12.186;2024-02-15T05:31:50;7.20;64.70
4584;DHT22;2304;47.606;12.186;2024-02-15T05:36:56;7.20;64.60
4584;DHT22;2304;47.606;12.186;2024-02-15T05:41:58;7.20;64.90
4584;DHT22;2304;47.606;12.186;2024-02-15T05:47:01;7.20;64.90
4584;DHT22;2304;47.606;12.186;2024-02-15T05:52:05;7.20;64.80
4584;DHT22;2304;47.606;12.186;2024-02-15T05:57:07;7.10;64.90
4584;DHT22;2304;47.606;12.186;2024-02-15T06:02:09;7.10;64.80
4584;DHT22;2304;47.606;12.186;2024-02-15T06:07:13;6.90;65.50
4584;DHT22;2304;47.606;12.186;2024-02-15T06:12:15;7.00;65.30
4584;DHT22;2304;47.606;12.186;2024-02-15T06:17:17;7.00;65.60
4584;DHT22;2304;47.606;12.186;2024-02-15T06:22:20;6.90;65.60
4584;DHT22;2304;47.606;12.186;2024-02-15T06:27:23;7.00;65.50
4584;DHT22;2304;47.606;12.186;2024-02-15T06:32:25;6.90;65.40
4584;DHT22;2304;47.606;12.186;2024-02-15T06:37:46;6.80;66.00
4584;DHT22;2304;47.606;12.186;2024-02-15T06:43:05;6.80;66.70
4584;DHT22;2304;47.606;12.186;2024-02-15T06:48:08;6.80;66.60
4584;DHT22;2304;47.606;12.186;2024-02-15T06:53:12;6.80;66.80
4584;DHT22;2304;47.606;12.186;2024-02-15T06:58:14;6.70;67.20
4584;DHT22;2304;47.606;12.186;2024-02-15T07:03:16;6.80;67.50
4584;DHT22;2304;47.606;12.186;2024-02-15T07:08:19;6.70;67.30
4584;DHT22;2304;47.606;12.186;2024-02-15T07:13:21;6.70;67.50
4584;DHT22;2304;47.606;12.186;2024-02-15T07:18:23;6.70;67.50
4584;DHT22;2304;47.606;12.186;2024-02-15T07:23:27;6.60;67.30
4584;DHT22;2304;47.606;12.186;2024-02-15T07:28:29;6.60;67.20
4584;DHT22;2304;47.606;12.186;2024-02-15T07:33:31;6.60;67.20
4584;DHT22;2304;47.606;12.186;2024-02-15T07:38:37;6.60;67.50
4584;DHT22;2304;47.606;12.186;2024-02-15T07:43:39;6.60;68.00
4584;DHT22;2304;47.606;12.186;2024-02-15T07:48:41;6.60;67.70
4584;DHT22;2304;47.606;12.186;2024-02-15T07:53:47;6.50;67.40
4584;DHT22;2304;47.606;12.186;2024-02-15T07:58:49;6.70;67.50
4584;DHT22;2304;47.606;12.186;2024-02-15T08:03:52;6.50;67.80
4584;DHT22;2304;47.606;12.186;2024-02-15T08:08:56;6.60;68.00
4584;DHT22;2304;47.606;12.186;2024-02-15T08:13:57;6.70;67.60
4584;DHT22;2304;47.606;12.186;2024-02-15T08:19:00;7.00;65.70
4584;DHT22;2304;47.606;12.186;2024-02-15T08:24:04;7.30;65.00
4584;DHT22;2304;47.606;12.186;2024-02-15T08:29:06;7.60;64.60
4584;DHT22;2304;47.606;12.186;2024-02-15T08:34:09;8.00;65.50
4584;DHT22;2304;47.606;12.186;2024-02-15T08:39:16;8.60;65.60
4584;DHT22;2304;47.606;12.186;2024-02-15T08:44:17;8.80;62.20
4584;DHT22;2304;47.606;12.186;2024-02-15T08:49:21;8.90;63.10
4584;DHT22;2304;47.606;12.186;2024-02-15T08:54:24;9.20;61.80
4584;DHT22;2304;47.606;12.186;2024-02-15T08:59:27;9.50;61.10
4584;DHT22;2304;47.606;12.186;2024-02-15T09:04:29;9.60;59.90
4584;DHT22;2304;47.606;12.186;2024-02-15T09:09:32;10.10;59.40
4584;DHT22;2304;47.606;12.186;2024-02-15T09:14:36;9.90;59.00
4584;DHT22;2304;47.606;12.186;2024-02-15T09:19:38;10.20;58.20
4584;DHT22;2304;47.606;12.186;2024-02-15T09:24:41;10.40;58.40
4584;DHT22;2304;47.606;12.186;2024-02-15T09:29:43;10.60;57.00
4584;DHT22;2304;47.606;12.186;2024-02-15T09:34:45;10.80;56.20
4584;DHT22;2304;47.606;12.186;2024-02-15T09:39:48;11.20;56.50
4584;DHT22;2304;47.606;12.186;2024-02-15T09:44:50;11.50;56.20
4584;DHT22;2304;47.606;12.186;2024-02-15T09:49:52;11.70;55.70
4584;DHT22;2304;47.606;12.186;2024-02-15T09:54:55;11.90;54.50
4584;DHT22;2304;47.606;12.186;2024-02-15T09:59:57;12.10;54.80
4584;DHT22;2304;47.606;12.186;2024-02-15T10:04:59;12.30;54.20
4584;DHT22;2304;47.606;12.186;2024-02-15T10:10:14;12.50;53.00
4584;DHT22;2304;47.606;12.186;2024-02-15T10:15:28;12.70;52.90
4584;DHT22;2304;47.606;12.186;2024-02-15T10:20:31;12.80;52.10
4584;DHT22;2304;47.606;12.186;2024-02-15T10:25:36;13.20;52.10
4584;DHT22;2304;47.606;12.186;2024-02-15T10:30:39;13.20;50.10
4584;DHT22;2304;47.606;12.186;2024-02-15T10:35:43;13.10;50.50
4584;DHT22;2304;47.606;12.186;2024-02-15T10:40:47;13.20;49.70
4584;DHT22;2304;47.606;12.186;2024-02-15T10:45:50;13.40;50.10
4584;DHT22;2304;47.606;12.186;2024-02-15T10:50:54;13.70;50.10
4584;DHT22;2304;47.606;12.186;2024-02-15T10:56:04;14.00;49.40
4584;DHT22;2304;47.606;12.186;2024-02-15T11:01:13;14.10;48.10
4584;DHT22;2304;47.606;12.186;2024-02-15T11:06:19;14.40;48.00
4584;DHT22;2304;47.606;12.186;2024-02-15T11:11:23;14.40;47.20
4584;DHT22;2304;47.606;12.186;2024-02-15T11:16:39;14.60;46.00
4584;DHT22;2304;47.606;12.186;2024-02-15T11:21:54;14.70;46.00
4584;DHT22;2304;47.606;12.186;2024-02-15T11:26:59;14.80;45.10
4584;DHT22;2304;47.606;12.186;2024-02-15T11:32:04;14.90;45.30
4584;DHT22;2304;47.606;12.186;2024-02-15T11:37:06;15.00;44.40
4584;DHT22;2304;47.606;12.186;2024-02-15T11:42:27;15.30;45.30
4584;DHT22;2304;47.606;12.186;2024-02-15T11:47:31;15.50;45.10
4584;DHT22;2304;47.606;12.186;2024-02-15T11:52:33;15.60;43.90
4584;DHT22;2304;47.606;12.186;2024-02-15T11:57:37;15.80;43.90
4584;DHT22;2304;47.606;12.186;2024-02-15T12:02:48;16.10;44.80
4584;DHT22;2304;47.606;12.186;2024-02-15T12:08:07;16.30;44.90
4584;DHT22;2304;47.606;12.186;2024-02-15T12:13:27;16.40;43.60
4584;DHT22;2304;47.606;12.186;2024-02-15T12:18:48;16.50;43.80
4584;DHT22;2304;47.606;12.186;2024-02-15T12:23:53;16.70;42.60
4584;DHT22;2304;47.606;12.186;2024-02-15T12:28:56;16.90;42.80
4584;DHT22;2304;47.606;12.186;2024-02-15T12:34:02;16.90;41.70
4584;DHT22;2304;47.606;12.186;2024-02-15T12:39:07;17.00;42.40
4584;DHT22;2304;47.606;12.186;2024-02-15T12:44:16;17.20;41.90
4584;DHT22;2304;47.606;12.186;2024-02-15T12:49:29;17.40;42.50
4584;DHT22;2304;47.606;12.186;2024-02-15T12:54:31;17.50;41.20
4584;DHT22;2304;47.606;12.186;2024-02-15T12:59:34;17.40;41.70
4584;DHT22;2304;47.606;12.186;2024-02-15T13:04:37;17.20;40.50
4584;DHT22;2304;47.606;12.186;2024-02-15T13:09:40;17.10;41.90
4584;DHT22;2304;47.606;12.186;2024-02-15T13:14:44;16.90;40.60
4584;DHT22;2304;47.606;12.186;2024-02-15T13:19:46;16.80;42.40
4584;DHT22;2304;47.606;12.186;2024-02-15T13:24:49;16.60;43.10
4584;DHT22;2304;47.606;12.186;2024-02-15T13:29:52;16.50;44.70
4584;DHT22;2304;47.606;12.186;2024-02-15T13:34:54;16.40;43.50
4584;DHT22;2304;47.606;12.186;2024-02-15T13:39:58;16.30;43.90
4584;DHT22;2304;47.606;12.186;2024-02-15T13:45:01;16.20;44.30
4584;DHT22;2304;47.606;12.186;2024-02-15T13:50:03;16.50;44.70
4584;DHT22;2304;47.606;12.186;2024-02-15T13:55:05;16.50;43.80
4584;DHT22;2304;47.606;12.186;2024-02-15T14:00:11;16.60;43.80
4584;DHT22;2304;47.606;12.186;2024-02-15T14:05:22;16.90;44.50
4584;DHT22;2304;47.606;12.186;2024-02-15T14:10:28;17.10;42.20
4584;DHT22;2304;47.606;12.186;2024-02-15T14:15:32;17.20;41.90
4584;DHT22;2304;47.606;12.186;2024-02-15T14:20:37;17.20;41.70
4584;DHT22;2304;47.606;12.186;2024-02-15T14:25:39;17.20;41.30
4584;DHT22;2304;47.606;12.186;2024-02-15T14:30:43;17.20;43.00
4584;DHT22;2304;47.606;12.186;2024-02-15T14:36:02;17.30;42.50
4584;DHT22;2304;47.606;12.186;2024-02-15T14:41:04;17.30;41.70
4584;DHT22;2304;47.606;12.186;2024-02-15T14:46:08;17.20;41.70
4584;DHT22;2304;47.606;12.186;2024-02-15T14:51:15;17.20;42.80
4584;DHT22;2304;47.606;12.186;2024-02-15T14:56:18;17.20;41.60
4584;DHT22;2304;47.606;12.186;2024-02-15T15:01:21;17.20;41.00
4584;DHT22;2304;47.606;12.186;2024-02-15T15:06:24;17.30;42.50
4584;DHT22;2304;47.606;12.186;2024-02-15T15:11:44;17.30;42.10
4584;DHT22;2304;47.606;12.186;2024-02-15T15:17:04;17.30;42.50
4584;DHT22;2304;47.606;12.186;2024-02-15T15:22:07;17.30;43.70
4584;DHT22;2304;47.606;12.186;2024-02-15T15:27:09;17.10;44.00
4584;DHT22;2304;47.606;12.186;2024-02-15T15:32:12;16.90;44.10
4584;DHT22;2304;47.606;12.186;2024-02-15T15:37:15;16.80;44.90
4584;DHT22;2304;47.606;12.186;2024-02-15T15:42:18;16.60;45.10
4584;DHT22;2304;47.606;12.186;2024-02-15T15:47:22;16.50;45.80
4584;DHT22;2304;47.606;12.186;2024-02-15T15:52:23;16.40;46.70
4584;DHT22;2304;47.606;12.186;2024-02-15T15:57:25;16.20;47.20
4584;DHT22;2304;47.606;12.186;2024-02-15T16:02:29;16.00;48.10
4584;DHT22;2304;47.606;12.186;2024-02-15T16:07:31;15.70;49.30
4584;DHT22;2304;47.606;12.186;2024-02-15T16:12:34;15.60;48.80
4584;DHT22;2304;47.606;12.186;2024-02-15T16:17:37;15.50;48.60
4584;DHT22;2304;47.606;12.186;2024-02-15T16:22:41;15.30;48.80
4584;DHT22;2304;47.606;12.186;2024-02-15T16:27:43;15.10;49.40
4584;DHT22;2304;47.606;12.186;2024-02-15T16:32:46;15.00;49.40
4584;DHT22;2304;47.606;12.186;2024-02-15T16:37:48;14.90;49.70
4584;DHT22;2304;47.606;12.186;2024-02-15T16:42:50;14.70;49.90
4584;DHT22;2304;47.606;12.186;2024-02-15T16:47:55;14.60;50.10
4584;DHT22;2304;47.606;12.186;2024-02-15T16:52:59;14.40;50.90
4584;DHT22;2304;47.606;12.186;2024-02-15T16:58:02;14.20;51.30
4584;DHT22;2304;47.606;12.186;2024-02-15T17:03:07;14.00;51.80
4584;DHT22;2304;47.606;12.186;2024-02-15T17:08:13;13.70;52.60
4584;DHT22;2304;47.606;12.186;2024-02-15T17:13:15;13.60;53.10
4584;DHT22;2304;47.606;12.186;2024-02-15T17:18:18;13.40;53.30
4584;DHT22;2304;47.606;12.186;2024-02-15T17:23:20;13.30;53.70
4584;DHT22;2304;47.606;12.186;2024-02-15T17:28:24;13.20;53.90
4584;DHT22;2304;47.606;12.186;2024-02-15T17:33:27;13.10;54.20
4584;DHT22;2304;47.606;12.186;2024-02-15T17:38:29;13.00;54.10
4584;DHT22;2304;47.606;12.186;2024-02-15T17:43:33;12.90;54.20
4584;DHT22;2304;47.606;12.186;2024-02-15T17:48:37;12.70;55.00
4584;DHT22;2304;47.606;12.186;2024-02-15T17:53:38;12.50;55.50
4584;DHT22;2304;47.606;12.186;2024-02-15T17:58:42;12.30;56.20
4584;DHT22;2304;47.606;12.186;2024-02-15T18:03:46;12.10;57.40
4584;DHT22;2304;47.606;12.186;2024-02-15T18:08:48;12.20;57.90
4584;DHT22;2304;47.606;12.186;2024-02-15T18:13:50;12.00;57.70
4584;DHT22;2304;47.606;12.186;2024-02-15T18:18:54;11.80;57.90
4584;DHT22;2304;47.606;12.186;2024-02-15T18:23:56;11.80;57.80
4584;DHT22;2304;47.606;12.186;2024-02-15T18:28:58;11.60;57.90
4584;DHT22;2304;47.606;12.186;2024-02-15T18:34:01;11.50;58.40
4584;DHT22;2304;47.606;12.186;2024-02-15T18:39:07;11.50;58.30
4584;DHT22;2304;47.606;12.186;2024-02-15T18:44:09;11.50;58.60
4584;DHT22;2304;47.606;12.186;2024-02-15T18:49:13;11.50;58.70
4584;DHT22;2304;47.606;12.186;2024-02-15T18:54:15;11.40;59.00
4584;DHT22;2304;47.606;12.186;2024-02-15T18:59:18;11.40;58.80
4584;DHT22;2304;47.606;12.186;2024-02-15T19:04:22;11.30;59.30
4584;DHT22;2304;47.606;12.186;2024-02-15T19:09:24;11.20;58.70
4584;DHT22;2304;47.606;12.186;2024-02-15T19:14:26;11.10;59.10
4584;DHT22;2304;47.606;12.186;2024-02-15T19:19:29;11.00;59.60
4584;DHT22;2304;47.606;12.186;2024-02-15T19:24:30;10.90;60.10
4584;DHT22;2304;47.606;12.186;2024-02-15T19:29:32;11.00;59.80
4584;DHT22;2304;47.606;12.186;2024-02-15T19:34:36;10.60;59.80
4584;DHT22;2304;47.606;12.186;2024-02-15T19:39:39;10.60;60.50
4584;DHT22;2304;47.606;12.186;2024-02-15T19:44:41;10.50;61.20
4584;DHT22;2304;47.606;12.186;2024-02-15T19:49:46;10.30;62.30
4584;DHT22;2304;47.606;12.186;2024-02-15T19:54:48;10.50;62.30
4584;DHT22;2304;47.606;12.186;2024-02-15T19:59:50;10.30;62.00
4584;DHT22;2304;47.606;12.186;2024-02-15T20:04:53;10.40;61.80
4584;DHT22;2304;47.606;12.186;2024-02-15T20:09:55;10.30;62.10
4584;DHT22;2304;47.606;12.186;2024-02-15T20:14:57;10.10;62.90
4584;DHT22;2304;47.606;12.186;2024-02-15T20:20:00;10.00;62.80
4584;DHT22;2304;47.606;12.186;2024-02-15T20:25:02;10.00;63.00
4584;DHT22;2304;47.606;12.186;2024-02-15T20:30:06;9.90;63.40
4584;DHT22;2304;47.606;12.186;2024-02-15T20:35:09;9.90;63.20
4584;DHT22;2304;47.606;12.186;2024-02-15T20:40:11;9.80;62.90
4584;DHT22;2304;47.606;12.186;2024-02-15T20:45:15;9.70;62.90
4584;DHT22;2304;47.606;12.186;2024-02-15T20:50:20;9.70;62.60
4584;DHT22;2304;47.606;12.186;2024-02-15T20:55:22;9.70;62.90
4584;DHT22;2304;47.606;12.186;2024-02-15T21:00:24;9.60;63.00
4584;DHT22;2304;47.606;12.186;2024-02-15T21:05:31;9.50;63.50
4584;DHT22;2304;47.606;12.186;2024-02-15T21:10:33;9.50;63.60
4584;DHT22;2304;47.606;12.186;2024-02-15T21:15:36;9.40;63.60
4584;DHT22;2304;47.606;12.186;2024-02-15T21:20:39;9.40;63.80
4584;DHT22;2304;47.606;12.186;2024-02-15T21:25:41;9.40;63.80
4584;DHT22;2304;47.606;12.186;2024-02-15T21:30:43;9.30;63.90
4584;DHT22;2304;47.606;12.186;2024-02-15T21:35:46;9.40;63.90
4584;DHT22;2304;47.606;12.186;2024-02-15T21:40:48;9.40;63.80
4584;DHT22;2304;47.606;12.186;2024-02-15T21:45:50;9.20;63.90
4584;DHT22;2304;47.606;12.186;2024-02-15T21:50:54;9.20;63.90
4584;DHT22;2304;47.606;12.186;2024-02-15T21:55:55;9.20;64.00
4584;DHT22;2304;47.606;12.186;2024-02-15T22:00:59;9.20;63.70
4584;DHT22;2304;47.606;12.186;2024-02-15T22:06:03;9.10;63.80
4584;DHT22;2304;47.606;12.186;2024-02-15T22:11:04;9.10;64.00
4584;DHT22;2304;47.606;12.186;2024-02-15T22:16:06;9.00;63.90
4584;DHT22;2304;47.606;12.186;2024-02-15T22:21:10;8.90;64.50
4584;DHT22;2304;47.606;12.186;2024-02-15T22:26:15;8.90;64.40
4584;DHT22;2304;47.606;12.186;2024-02-15T22:31:17;8.90;64.20
4584;DHT22;2304;47.606;12.186;2024-02-15T22:36:21;8.90;64.00
4584;DHT22;2304;47.606;12.186;2024-02-15T22:41:23;8.80;63.90
4584;DHT22;2304;47.606;12.186;2024-02-15T22:46:25;8.70;64.40
4584;DHT22;2304;47.606;12.186;2024-02-15T22:51:28;8.60;64.70
4584;DHT22;2304;47.606;12.186;2024-02-15T22:56:30;8.60;64.70
4584;DHT22;2304;47.606;12.186;2024-02-15T23:01:32;8.60;64.70
4584;DHT22;2304;47.606;12.186;2024-02-15T23:06:36;8.60;65.10
4584;DHT22;2304;47.606;12.186;2024-02-15T23:11:37;8.50;65.60
4584;DHT22;2304;47.606;12.186;2024-02-15T23:16:39;8.50;65.60
4584;DHT22;2304;47.606;12.186;2024-02-15T23:21:42;8.40;66.00
4584;DHT22;2304;47.606;12.186;2024-02-15T23:26:44;8.30;65.70
4584;DHT22;2304;47.606;12.186;2024-02-15T23:31:47;8.40;65.90
4584;DHT22;2304;47.606;12.186;2024-02-15T23:36:50;8.30;65.90
4584;DHT22;2304;47.606;12.186;2024-02-15T23:42:09;8.30;66.00
4584;DHT22;2304;47.606;12.186;2024-02-15T23:47:11;8.30;65.80
4584;DHT22;2304;47.606;12.186;2024-02-15T23:52:14;8.30;65.40
4584;DHT22;2304;47.606;12.186;2024-02-15T23:57:17;8.20;65.30
